Brownsville, WI (53006)

8:44 PM CDT on August 27, 2015 (GMT -0500)
Farmersville, WI | | Change Station
CLOSE
Current Station
Personal Weather Station
Location: Mayville, WI
Elevation: 961 ft
Nearby Weather Stations

Elev 961 ft 43.56 °N, 88.54 °W | Updated 19 seconds ago

Clear
Clear
63.3 °F
Feels Like 63.3 °F
N
0.0
Wind Variable Wind from SSE
Gusts 0.0 mph

Today
High -- | Low -- °F
--% Chance of Precip.
Yesterday
High -- | Low -- °F
Precip. -- in
6:11 AM 7:38 PM
Waxing Gibbous, 96% visible
Pressure 30.11 in
Visibility 10.0 miles
Clouds Few 4600 ft
Dew Point 61 °F
Humidity 92%
Rainfall 0.00 in
Snow Depth Not available.
UV 0.0 out of 12
Pollen 10.10 out of 12
Air Quality Not available.
Flu Activity Not available.
METAR KFLD 280053Z AUTO 17004KT 10SM FEW046 18/14 A3010 RMK AO2 SLP194 T01780144
Pressure 30.11 in
Visibility 10.0 miles
Clouds Few 4600 ft
Dew Point 61 °F
Humidity 92%
Rainfall 0.00 in
Snow Depth Not available.
UV 0.0 out of 12
Pollen 10.10 out of 12
Air Quality Not available.
Flu Activity Not available.
METAR KFLD 280053Z AUTO 17004KT 10SM FEW046 18/14 A3010 RMK AO2 SLP194 T01780144

10-Day Weather Forecast

×

Almanac

Astronomy

Aug. 27, 2015 Rise Set
Actual Time
Civil Twilight
Nautical Twilight
Astronomical Twilight
Moon
Length of Visible Light
Length of Day
Tomorrow will be .
, % of the Moon is Illuminated

Today's Extremes

State Highs State Lows

Community

WunderPhotos

Upload Photos

1,850,296 photos uploaded!

WunderBlogs® & News

Nearby

Air Quality

  Air Quality AQ Index Pollutant
Not available.

Snow Depth

Station Depth Elevation

Earthquake Activity

City Distance Mag. Time & Date
Minimum magnitude displayed is 2.5.

Coastal Water Temperatures

Place Temperature

Stations

Nearby Weather Stations

Station Location Temp. Windchill Dew Point Humidity Wind Precip. Elev Updated Type